createdAt,value
2018-04-07T12:28:51.070Z,26.87
2018-04-07T12:31:18.638Z,27.47
2018-04-07T12:33:46.209Z,27.93
2018-04-07T12:36:13.887Z,28.60
2018-04-07T12:38:41.468Z,29.28
2018-04-07T12:41:10.763Z,29.25
2018-04-07T12:43:38.426Z,29.30
2018-04-07T12:46:06.018Z,28.27
2018-04-07T12:48:33.646Z,27.43
2018-04-07T12:51:01.407Z,26.47
2018-04-07T12:53:29.066Z,25.79
2018-04-07T12:55:56.629Z,25.41
2018-04-07T12:58:24.246Z,25.15
2018-04-07T13:00:51.869Z,25.08
2018-04-07T13:03:19.530Z,24.57
2018-04-07T13:05:47.156Z,24.32
2018-04-07T13:08:14.746Z,24.17
2018-04-07T13:10:42.316Z,23.99
2018-04-07T13:13:10.098Z,23.76
2018-04-07T13:15:37.696Z,23.69
2018-04-07T13:18:05.318Z,23.58
2018-04-07T13:20:33.528Z,23.43
2018-04-07T13:23:01.190Z,23.35
2018-04-07T13:25:28.839Z,23.15
2018-04-07T13:27:56.526Z,23.17
2018-04-07T13:30:24.231Z,23.07
2018-04-07T13:32:51.853Z,23.05
2018-04-07T13:35:19.498Z,22.87
2018-04-07T13:37:47.061Z,22.84
2018-04-07T13:40:14.691Z,22.71
2018-04-07T13:42:42.407Z,22.60
2018-04-07T13:45:10.046Z,22.45
2018-04-07T13:47:37.621Z,22.33
2018-04-07T13:50:05.332Z,22.19
2018-04-07T13:52:32.966Z,22.14
2018-04-07T13:55:00.538Z,22.10
2018-04-07T13:57:28.249Z,22.13
2018-04-07T13:59:55.826Z,22.00
2018-04-07T14:02:23.471Z,21.97
2018-04-07T14:04:51.094Z,21.85
2018-04-07T14:07:18.740Z,21.88
2018-04-07T14:09:46.371Z,21.97
2018-04-07T14:12:13.990Z,21.95
2018-04-07T14:14:41.562Z,21.88
2018-04-07T14:17:09.134Z,21.77
2018-04-07T14:19:36.845Z,21.71
2018-04-07T14:22:04.431Z,21.58
2018-04-07T14:24:32.030Z,21.54
2018-04-07T14:26:59.653Z,21.51
2018-04-07T14:29:27.228Z,21.48
2018-04-07T14:31:55.181Z,21.39
2018-04-07T14:34:22.861Z,21.34
2018-04-07T14:36:50.418Z,21.31
2018-04-07T14:39:18.984Z,21.32
2018-04-07T14:41:46.659Z,21.31
2018-04-07T14:44:14.221Z,21.30
2018-04-07T14:46:41.805Z,21.27
2018-04-07T14:49:09.513Z,21.23
2018-04-07T14:51:37.142Z,21.17
2018-04-07T14:54:04.734Z,21.14
2018-04-07T14:56:32.433Z,21.09
2018-04-07T14:59:00.009Z,21.08
2018-04-07T15:01:27.594Z,21.05
2018-04-07T15:03:55.203Z,21.05
2018-04-07T15:06:22.826Z,21.00
2018-04-07T15:08:50.422Z,20.94
2018-04-07T15:11:18.101Z,20.88
2018-04-07T15:13:45.689Z,20.70
2018-04-07T15:16:13.290Z,20.68
2018-04-07T15:18:40.967Z,20.59
2018-04-07T15:21:08.550Z,20.57
2018-04-07T15:23:36.121Z,20.53
2018-04-07T15:26:03.752Z,20.48
2018-04-07T15:28:31.459Z,20.35
2018-04-07T15:30:59.178Z,20.25
2018-04-07T15:33:27.440Z,20.14
2018-04-07T15:35:55.009Z,20.06
2018-04-07T15:38:22.606Z,19.99
2018-04-07T15:40:50.396Z,19.94
2018-04-07T15:43:18.027Z,19.87
2018-04-07T15:45:45.602Z,19.82
2018-04-07T15:48:13.323Z,19.81
2018-04-07T15:50:40.896Z,19.78
2018-04-07T15:53:08.618Z,19.65
2018-04-07T15:55:36.344Z,19.67
2018-04-07T15:58:03.994Z,19.64
2018-04-07T16:00:31.568Z,19.56
2018-04-07T16:02:59.241Z,19.48
2018-04-07T16:05:26.864Z,19.40
2018-04-07T16:07:54.492Z,19.27
2018-04-07T16:10:22.261Z,19.23
2018-04-07T16:12:49.951Z,19.17
2018-04-07T16:15:17.561Z,19.08
2018-04-07T16:17:45.351Z,18.98
2018-04-07T16:20:12.978Z,18.94
2018-04-07T16:22:40.562Z,18.85
2018-04-07T16:25:08.240Z,18.78
2018-04-07T16:27:35.870Z,18.74
2018-04-07T16:30:03.528Z,18.70
2018-04-07T16:32:32.049Z,18.64
2018-04-07T16:34:59.821Z,18.60
2018-04-07T16:37:27.467Z,18.56
2018-04-07T16:39:55.153Z,18.51
2018-04-07T16:42:22.766Z,18.42
2018-04-07T16:44:50.341Z,18.40
2018-04-07T16:47:18.084Z,18.38
2018-04-07T16:49:45.671Z,18.33
2018-04-07T16:52:13.262Z,18.27
2018-04-07T16:54:41.030Z,18.27
2018-04-07T16:57:08.764Z,18.21
2018-04-07T16:59:36.362Z,18.19
2018-04-07T17:02:04.070Z,18.15
2018-04-07T17:04:31.714Z,18.09
2018-04-07T17:06:59.403Z,18.05
2018-04-07T17:09:27.069Z,18.04
2018-04-07T17:11:55.015Z,18.06
2018-04-07T17:14:22.661Z,18.01
2018-04-07T17:16:50.403Z,18.01
2018-04-07T17:19:18.005Z,18.01
2018-04-07T17:21:45.650Z,17.97
2018-04-07T17:24:13.518Z,17.93
2018-04-07T17:26:41.100Z,17.90
2018-04-07T17:29:08.671Z,17.91
2018-04-07T17:31:36.375Z,17.83
2018-04-07T17:34:03.949Z,17.80
2018-04-07T17:36:31.609Z,17.81
2018-04-07T17:38:59.254Z,17.82
2018-04-07T17:41:26.966Z,17.88
2018-04-07T17:43:54.542Z,17.88
2018-04-07T17:46:22.209Z,17.87
2018-04-07T17:48:49.871Z,17.84
2018-04-07T17:51:17.890Z,17.84
2018-04-07T17:53:45.515Z,17.81
2018-04-07T17:56:13.692Z,17.80
2018-04-07T17:58:41.278Z,17.78
2018-04-07T18:01:09.633Z,17.76
2018-04-07T18:03:37.302Z,17.74
2018-04-07T18:06:04.933Z,17.69
2018-04-07T18:08:32.620Z,17.63
2018-04-07T18:11:00.252Z,17.57
2018-04-07T18:13:27.952Z,17.50
2018-04-07T18:15:55.584Z,17.43
2018-04-07T18:18:23.161Z,17.35
2018-04-07T18:20:50.758Z,17.28
2018-04-07T18:23:18.391Z,17.22
2018-04-07T18:25:46.006Z,17.15
2018-04-07T18:28:13.659Z,17.09
2018-04-07T18:30:41.295Z,17.01
2018-04-07T18:33:09.010Z,16.94
2018-04-07T18:35:36.586Z,16.89
2018-04-07T18:38:05.702Z,16.84
2018-04-07T18:40:33.323Z,16.83
2018-04-07T18:43:00.962Z,16.85
2018-04-07T18:45:28.775Z,16.92
2018-04-07T18:47:56.429Z,16.96
2018-04-07T18:50:24.015Z,16.95
2018-04-07T18:52:51.682Z,16.96
2018-04-07T18:55:19.252Z,17.03
2018-04-07T18:57:46.889Z,17.11
2018-04-07T19:00:14.574Z,17.15
2018-04-07T19:02:42.182Z,17.19
2018-04-07T19:05:09.798Z,17.20
2018-04-07T19:07:37.541Z,17.26
2018-04-07T19:10:05.235Z,17.30
2018-04-07T19:12:32.805Z,17.31
2018-04-07T19:15:00.439Z,17.33
2018-04-07T19:17:28.083Z,17.33
2018-04-07T19:19:55.659Z,17.30
2018-04-07T19:22:23.321Z,17.28
2018-04-07T19:24:50.995Z,17.30
2018-04-07T19:27:18.629Z,17.30
2018-04-07T19:29:46.511Z,17.23
2018-04-07T19:32:14.082Z,17.23
2018-04-07T19:34:41.716Z,17.01
2018-04-07T19:37:09.342Z,16.88
2018-04-07T19:39:36.983Z,16.72
2018-04-07T19:42:04.645Z,16.61
2018-04-07T19:44:32.358Z,16.48
2018-04-07T19:46:59.929Z,16.34
2018-04-07T19:49:27.514Z,16.19
2018-04-07T19:51:55.267Z,16.11
2018-04-07T19:54:22.837Z,16.05
2018-04-07T19:56:50.472Z,15.98
2018-04-07T19:59:18.178Z,15.91
2018-04-07T20:01:45.810Z,15.84
2018-04-07T20:04:13.396Z,15.81
2018-04-07T20:06:41.018Z,15.74
2018-04-07T20:09:08.694Z,15.64
2018-04-07T20:11:36.262Z,15.57
2018-04-07T20:14:03.907Z,15.50
2018-04-07T20:16:31.602Z,15.38
2018-04-07T20:18:59.166Z,15.26
2018-04-07T20:21:26.873Z,15.13
2018-04-07T20:23:54.449Z,15.03
2018-04-07T20:26:22.099Z,14.94
2018-04-07T20:28:49.843Z,14.77
2018-04-07T20:31:19.400Z,14.69
2018-04-07T20:33:47.034Z,14.54
2018-04-07T20:36:14.666Z,14.46
2018-04-07T20:38:44.250Z,14.32
2018-04-07T20:41:11.924Z,14.22
2018-04-07T20:43:39.627Z,14.14
2018-04-07T20:46:07.195Z,13.99
2018-04-07T20:48:34.850Z,13.87
2018-04-07T20:51:02.575Z,13.79
2018-04-07T20:53:30.144Z,13.70
2018-04-07T20:55:57.783Z,13.65
2018-04-07T20:58:25.431Z,13.59
2018-04-07T21:00:53.014Z,13.52
2018-04-07T21:03:20.656Z,13.51
2018-04-07T21:05:48.439Z,13.45
2018-04-07T21:08:16.059Z,13.35
2018-04-07T21:10:43.756Z,13.25
2018-04-07T21:13:11.570Z,13.17
2018-04-07T21:15:39.216Z,13.09
2018-04-07T21:18:06.851Z,13.01
2018-04-07T21:20:34.481Z,12.98
2018-04-07T21:23:02.129Z,12.89
2018-04-07T21:25:29.775Z,12.86
2018-04-07T21:27:57.519Z,12.80
2018-04-07T21:30:25.125Z,12.76
2018-04-07T21:32:52.713Z,12.70
2018-04-07T21:35:20.426Z,12.70
2018-04-07T21:37:48.151Z,12.64
2018-04-07T21:40:15.723Z,12.57
2018-04-07T21:42:44.248Z,12.54
2018-04-07T21:45:11.878Z,12.52
2018-04-07T21:47:39.458Z,12.44
2018-04-07T21:50:07.209Z,12.41
2018-04-07T21:52:34.824Z,12.34
2018-04-07T21:55:02.409Z,12.31
2018-04-07T21:57:30.130Z,12.28
2018-04-07T21:59:57.720Z,12.25
2018-04-07T22:02:25.297Z,12.26
2018-04-07T22:04:52.975Z,12.24
2018-04-07T22:07:20.555Z,12.22
2018-04-07T22:09:48.136Z,12.20
2018-04-07T22:12:15.854Z,12.17
2018-04-07T22:14:43.434Z,12.12
2018-04-07T22:17:11.051Z,12.05
2018-04-07T22:19:38.822Z,12.07
2018-04-07T22:22:06.458Z,12.06
2018-04-07T22:24:34.082Z,12.04
2018-04-07T22:27:01.792Z,12.08
2018-04-07T22:29:29.423Z,12.07
2018-04-07T22:31:57.062Z,12.07
2018-04-07T22:34:24.697Z,12.06
2018-04-07T22:36:52.284Z,12.06
2018-04-07T22:39:19.960Z,12.03
2018-04-07T22:41:47.625Z,11.99
2018-04-07T22:44:15.355Z,11.94
2018-04-07T22:46:43.020Z,11.91
2018-04-07T22:49:10.726Z,11.89
2018-04-07T22:51:38.370Z,11.86
2018-04-07T22:54:06.029Z,11.82
2018-04-07T22:56:33.810Z,11.81
2018-04-07T22:59:01.463Z,11.80
2018-04-07T23:01:29.091Z,11.82
2018-04-07T23:03:56.698Z,11.83
2018-04-07T23:06:24.270Z,11.88
2018-04-07T23:08:51.845Z,12.05
2018-04-07T23:11:19.502Z,12.22
2018-04-07T23:13:47.068Z,12.28
2018-04-07T23:16:14.656Z,12.34
2018-04-07T23:18:42.277Z,12.34
2018-04-07T23:21:09.866Z,12.36
2018-04-07T23:23:37.436Z,12.39
2018-04-07T23:26:05.150Z,12.49
2018-04-07T23:28:32.743Z,12.64
2018-04-07T23:31:00.325Z,12.77
2018-04-07T23:33:28.049Z,12.92
2018-04-07T23:35:55.715Z,13.04
2018-04-07T23:38:23.340Z,13.11
2018-04-07T23:40:51.093Z,13.20
2018-04-07T23:43:18.671Z,13.32
2018-04-07T23:45:46.366Z,13.45
2018-04-07T23:48:14.046Z,13.51
2018-04-07T23:50:41.670Z,13.58
2018-04-07T23:53:09.251Z,13.60
2018-04-07T23:55:36.871Z,13.69
2018-04-07T23:58:04.528Z,13.78
